sensor_id;sensor_type;location;lat;lon;timestamp;temperature;humidity
20594;DHT22;10455;48.732;10.266;2022-07-10T00:04:31;15.80;99.90
20594;DHT22;10455;48.732;10.266;2022-07-10T00:09:35;15.70;99.90
20594;DHT22;10455;48.732;10.266;2022-07-10T00:14:37;15.50;99.90
20594;DHT22;10455;48.732;10.266;2022-07-10T00:19:39;15.40;99.90
20594;DHT22;10455;48.732;10.266;2022-07-10T00:24:43;15.20;99.90
20594;DHT22;10455;48.732;10.266;2022-07-10T00:29:46;14.90;99.90
20594;DHT22;10455;48.732;10.266;2022-07-10T00:34:48;14.90;99.90
20594;DHT22;10455;48.732;10.266;2022-07-10T00:39:52;15.00;99.90
20594;DHT22;10455;48.732;10.266;2022-07-10T00:44:54;14.90;99.90
20594;DHT22;10455;48.732;10.266;2022-07-10T00:49:57;14.90;99.90
20594;DHT22;10455;48.732;10.266;2022-07-10T00:55:01;14.80;99.90
20594;DHT22;10455;48.732;10.266;2022-07-10T01:00:05;14.50;99.90
20594;DHT22;10455;48.732;10.266;2022-07-10T01:05:08;14.40;99.90
20594;DHT22;10455;48.732;10.266;2022-07-10T01:10:11;14.30;99.90
20594;DHT22;10455;48.732;10.266;2022-07-10T01:15:13;14.20;99.90
20594;DHT22;10455;48.732;10.266;2022-07-10T01:20:16;14.20;99.90
20594;DHT22;10455;48.732;10.266;2022-07-10T01:25:20;14.30;99.90
20594;DHT22;10455;48.732;10.266;2022-07-10T01:30:22;14.20;99.90
20594;DHT22;10455;48.732;10.266;2022-07-10T01:35:25;14.10;99.90
20594;DHT22;10455;48.732;10.266;2022-07-10T01:40:29;14.00;99.90
20594;DHT22;10455;48.732;10.266;2022-07-10T01:45:32;13.90;99.90
20594;DHT22;10455;48.732;10.266;2022-07-10T01:50:35;13.90;99.90
20594;DHT22;10455;48.732;10.266;2022-07-10T01:55:39;13.80;99.90
20594;DHT22;10455;48.732;10.266;2022-07-10T02:00:41;13.90;99.90
20594;DHT22;10455;48.732;10.266;2022-07-10T02:05:45;13.80;99.90
20594;DHT22;10455;48.732;10.266;2022-07-10T02:10:49;13.80;99.90
20594;DHT22;10455;48.732;10.266;2022-07-10T02:15:51;13.90;99.90
20594;DHT22;10455;48.732;10.266;2022-07-10T02:20:54;13.80;99.90
20594;DHT22;10455;48.732;10.266;2022-07-10T02:25:58;13.70;99.90
20594;DHT22;10455;48.732;10.266;2022-07-10T02:31:00;13.70;99.90
20594;DHT22;10455;48.732;10.266;2022-07-10T02:36:02;13.90;99.90
20594;DHT22;10455;48.732;10.266;2022-07-10T02:41:06;13.70;99.90
20594;DHT22;10455;48.732;10.266;2022-07-10T02:46:09;14.10;99.90
20594;DHT22;10455;48.732;10.266;2022-07-10T02:51:11;14.20;99.90
20594;DHT22;10455;48.732;10.266;2022-07-10T02:56:15;14.50;99.90
20594;DHT22;10455;48.732;10.266;2022-07-10T03:01:17;14.80;99.90
20594;DHT22;10455;48.732;10.266;2022-07-10T03:06:19;14.80;99.90
20594;DHT22;10455;48.732;10.266;2022-07-10T03:11:23;14.90;99.90
20594;DHT22;10455;48.732;10.266;2022-07-10T03:16:25;14.90;99.90
20594;DHT22;10455;48.732;10.266;2022-07-10T03:21:27;14.80;99.90
20594;DHT22;10455;48.732;10.266;2022-07-10T03:26:32;14.60;99.90
20594;DHT22;10455;48.732;10.266;2022-07-10T03:31:34;14.80;99.90
20594;DHT22;10455;48.732;10.266;2022-07-10T03:36:36;14.70;99.90
20594;DHT22;10455;48.732;10.266;2022-07-10T03:41:40;14.70;99.90
20594;DHT22;10455;48.732;10.266;2022-07-10T03:46:43;15.00;99.90
20594;DHT22;10455;48.732;10.266;2022-07-10T03:51:45;14.80;99.90
20594;DHT22;10455;48.732;10.266;2022-07-10T03:56:48;14.90;99.90
20594;DHT22;10455;48.732;10.266;2022-07-10T04:02:08;14.80;99.90
20594;DHT22;10455;48.732;10.266;2022-07-10T04:07:10;14.50;99.90
20594;DHT22;10455;48.732;10.266;2022-07-10T04:12:14;14.90;99.90
20594;DHT22;10455;48.732;10.266;2022-07-10T04:17:17;15.10;99.90
20594;DHT22;10455;48.732;10.266;2022-07-10T04:22:19;15.40;99.90
20594;DHT22;10455;48.732;10.266;2022-07-10T04:27:23;15.20;99.90
20594;DHT22;10455;48.732;10.266;2022-07-10T04:32:25;15.10;99.90
20594;DHT22;10455;48.732;10.266;2022-07-10T04:37:28;15.30;99.90
20594;DHT22;10455;48.732;10.266;2022-07-10T04:42:32;15.40;99.90
20594;DHT22;10455;48.732;10.266;2022-07-10T04:47:34;15.00;99.90
20594;DHT22;10455;48.732;10.266;2022-07-10T04:52:37;15.00;99.90
20594;DHT22;10455;48.732;10.266;2022-07-10T04:57:40;14.90;99.90
20594;DHT22;10455;48.732;10.266;2022-07-10T05:02:45;14.80;99.90
20594;DHT22;10455;48.732;10.266;2022-07-10T05:07:47;14.70;99.90
20594;DHT22;10455;48.732;10.266;2022-07-10T05:12:51;15.20;99.90
20594;DHT22;10455;48.732;10.266;2022-07-10T05:17:53;15.10;99.90
20594;DHT22;10455;48.732;10.266;2022-07-10T05:22:56;14.90;99.90
20594;DHT22;10455;48.732;10.266;2022-07-10T05:33:02;14.90;99.90
20594;DHT22;10455;48.732;10.266;2022-07-10T05:38:05;15.20;99.90
20594;DHT22;10455;48.732;10.266;2022-07-10T05:43:09;15.60;99.90
20594;DHT22;10455;48.732;10.266;2022-07-10T05:48:12;15.40;99.90
20594;DHT22;10455;48.732;10.266;2022-07-10T05:53:14;15.00;99.90
20594;DHT22;10455;48.732;10.266;2022-07-10T05:58:21;14.90;99.90
20594;DHT22;10455;48.732;10.266;2022-07-10T06:03:23;15.40;99.90
20594;DHT22;10455;48.732;10.266;2022-07-10T06:08:26;14.70;99.90
20594;DHT22;10455;48.732;10.266;2022-07-10T06:13:30;14.70;99.90
20594;DHT22;10455;48.732;10.266;2022-07-10T06:18:32;14.90;99.90
20594;DHT22;10455;48.732;10.266;2022-07-10T06:23:34;14.50;99.90
20594;DHT22;10455;48.732;10.266;2022-07-10T06:28:38;14.40;99.90
20594;DHT22;10455;48.732;10.266;2022-07-10T06:33:40;15.00;99.90
20594;DHT22;10455;48.732;10.266;2022-07-10T06:38:42;15.40;99.90
20594;DHT22;10455;48.732;10.266;2022-07-10T06:43:46;14.70;99.90
20594;DHT22;10455;48.732;10.266;2022-07-10T06:48:48;14.40;99.90
20594;DHT22;10455;48.732;10.266;2022-07-10T06:53:50;14.80;99.90
20594;DHT22;10455;48.732;10.266;2022-07-10T06:58:54;15.10;99.90
20594;DHT22;10455;48.732;10.266;2022-07-10T07:03:56;15.90;99.90
20594;DHT22;10455;48.732;10.266;2022-07-10T07:08:59;16.50;99.90
20594;DHT22;10455;48.732;10.266;2022-07-10T07:14:02;16.30;99.90
20594;DHT22;10455;48.732;10.266;2022-07-10T07:19:04;16.60;99.90
20594;DHT22;10455;48.732;10.266;2022-07-10T07:24:07;17.20;99.90
20594;DHT22;10455;48.732;10.266;2022-07-10T07:29:10;17.20;99.90
20594;DHT22;10455;48.732;10.266;2022-07-10T07:34:12;17.30;99.90
20594;DHT22;10455;48.732;10.266;2022-07-10T07:39:15;17.50;99.90
20594;DHT22;10455;48.732;10.266;2022-07-10T07:44:19;17.30;99.90
20594;DHT22;10455;48.732;10.266;2022-07-10T07:49:21;17.80;99.90
20594;DHT22;10455;48.732;10.266;2022-07-10T07:54:23;20.20;99.90
20594;DHT22;10455;48.732;10.266;2022-07-10T07:59:27;20.80;99.90
20594;DHT22;10455;48.732;10.266;2022-07-10T08:04:29;19.40;99.90
20594;DHT22;10455;48.732;10.266;2022-07-10T08:09:31;19.90;99.90
20594;DHT22;10455;48.732;10.266;2022-07-10T08:14:34;18.80;99.90
20594;DHT22;10455;48.732;10.266;2022-07-10T08:19:36;18.40;99.90
20594;DHT22;10455;48.732;10.266;2022-07-10T08:24:39;20.00;99.90
20594;DHT22;10455;48.732;10.266;2022-07-10T08:29:42;20.30;99.90
20594;DHT22;10455;48.732;10.266;2022-07-10T08:34:44;20.60;99.90
20594;DHT22;10455;48.732;10.266;2022-07-10T08:39:47;19.40;99.90
20594;DHT22;10455;48.732;10.266;2022-07-10T08:44:51;19.90;99.90
20594;DHT22;10455;48.732;10.266;2022-07-10T08:49:53;22.60;97.50
20594;DHT22;10455;48.732;10.266;2022-07-10T08:54:55;21.10;97.20
20594;DHT22;10455;48.732;10.266;2022-07-10T08:59:59;21.30;99.10
20594;DHT22;10455;48.732;10.266;2022-07-10T09:05:01;23.70;93.60
20594;DHT22;10455;48.732;10.266;2022-07-10T09:10:09;22.70;93.80
20594;DHT22;10455;48.732;10.266;2022-07-10T09:15:17;24.80;92.80
20594;DHT22;10455;48.732;10.266;2022-07-10T09:20:27;26.30;88.50
20594;DHT22;10455;48.732;10.266;2022-07-10T09:25:31;26.30;85.80
20594;DHT22;10455;48.732;10.266;2022-07-10T09:30:37;22.00;92.40
20594;DHT22;10455;48.732;10.266;2022-07-10T09:35:55;21.30;93.90
20594;DHT22;10455;48.732;10.266;2022-07-10T09:41:12;24.20;90.60
20594;DHT22;10455;48.732;10.266;2022-07-10T09:46:18;25.40;86.10
20594;DHT22;10455;48.732;10.266;2022-07-10T09:51:21;24.50;89.40
20594;DHT22;10455;48.732;10.266;2022-07-10T09:56:24;24.70;87.50
20594;DHT22;10455;48.732;10.266;2022-07-10T10:01:29;23.20;90.60
20594;DHT22;10455;48.732;10.266;2022-07-10T10:06:33;24.70;87.40
20594;DHT22;10455;48.732;10.266;2022-07-10T10:11:40;27.00;81.60
20594;DHT22;10455;48.732;10.266;2022-07-10T10:16:45;25.90;83.00
20594;DHT22;10455;48.732;10.266;2022-07-10T10:21:48;24.50;83.30
20594;DHT22;10455;48.732;10.266;2022-07-10T10:26:51;23.50;85.30
20594;DHT22;10455;48.732;10.266;2022-07-10T10:31:54;22.50;87.20
20594;DHT22;10455;48.732;10.266;2022-07-10T10:36:57;22.30;88.70
20594;DHT22;10455;48.732;10.266;2022-07-10T10:41:59;22.60;87.90
20594;DHT22;10455;48.732;10.266;2022-07-10T10:47:06;22.10;90.00
20594;DHT22;10455;48.732;10.266;2022-07-10T10:52:12;21.80;89.80
20594;DHT22;10455;48.732;10.266;2022-07-10T10:57:17;23.60;89.10
20594;DHT22;10455;48.732;10.266;2022-07-10T11:02:25;26.10;79.80
20594;DHT22;10455;48.732;10.266;2022-07-10T11:07:52;23.80;83.80
20594;DHT22;10455;48.732;10.266;2022-07-10T11:12:59;23.10;85.10
20594;DHT22;10455;48.732;10.266;2022-07-10T11:18:05;25.10;78.70
20594;DHT22;10455;48.732;10.266;2022-07-10T11:23:30;23.40;84.00
20594;DHT22;10455;48.732;10.266;2022-07-10T11:28:46;24.00;81.60
20594;DHT22;10455;48.732;10.266;2022-07-10T11:33:52;24.10;83.80
20594;DHT22;10455;48.732;10.266;2022-07-10T11:38:57;23.30;80.20
20594;DHT22;10455;48.732;10.266;2022-07-10T11:44:01;24.70;81.00
20594;DHT22;10455;48.732;10.266;2022-07-10T11:49:05;26.30;76.40
20594;DHT22;10455;48.732;10.266;2022-07-10T11:54:11;26.70;73.90
20594;DHT22;10455;48.732;10.266;2022-07-10T11:59:14;23.90;79.20
20594;DHT22;10455;48.732;10.266;2022-07-10T12:04:19;25.10;78.30
20594;DHT22;10455;48.732;10.266;2022-07-10T12:09:23;24.50;80.40
20594;DHT22;10455;48.732;10.266;2022-07-10T12:14:27;25.20;81.20
20594;DHT22;10455;48.732;10.266;2022-07-10T12:19:36;26.60;73.90
20594;DHT22;10455;48.732;10.266;2022-07-10T12:24:41;28.00;70.50
20594;DHT22;10455;48.732;10.266;2022-07-10T12:29:43;27.40;70.50
20594;DHT22;10455;48.732;10.266;2022-07-10T12:35:03;24.90;77.00
20594;DHT22;10455;48.732;10.266;2022-07-10T12:40:09;25.90;74.40
20594;DHT22;10455;48.732;10.266;2022-07-10T12:45:13;27.00;67.70
20594;DHT22;10455;48.732;10.266;2022-07-10T12:50:18;27.60;69.90
20594;DHT22;10455;48.732;10.266;2022-07-10T12:55:21;27.50;66.00
20594;DHT22;10455;48.732;10.266;2022-07-10T13:00:25;27.70;65.40
20594;DHT22;10455;48.732;10.266;2022-07-10T13:05:31;26.80;70.40
20594;DHT22;10455;48.732;10.266;2022-07-10T13:10:34;24.80;73.50
20594;DHT22;10455;48.732;10.266;2022-07-10T13:15:37;24.40;72.60
20594;DHT22;10455;48.732;10.266;2022-07-10T13:20:47;21.90;78.90
20594;DHT22;10455;48.732;10.266;2022-07-10T13:25:50;21.10;83.40
20594;DHT22;10455;48.732;10.266;2022-07-10T13:30:52;23.70;78.40
20594;DHT22;10455;48.732;10.266;2022-07-10T13:35:59;24.30;77.90
20594;DHT22;10455;48.732;10.266;2022-07-10T13:41:02;27.40;70.60
20594;DHT22;10455;48.732;10.266;2022-07-10T13:46:04;28.90;65.50
20594;DHT22;10455;48.732;10.266;2022-07-10T13:51:08;24.30;74.00
20594;DHT22;10455;48.732;10.266;2022-07-10T13:56:11;23.70;75.80
20594;DHT22;10455;48.732;10.266;2022-07-10T14:01:13;22.80;77.80
20594;DHT22;10455;48.732;10.266;2022-07-10T14:06:16;23.20;77.10
20594;DHT22;10455;48.732;10.266;2022-07-10T14:11:19;24.10;73.70
20594;DHT22;10455;48.732;10.266;2022-07-10T14:16:21;24.20;76.30
20594;DHT22;10455;48.732;10.266;2022-07-10T14:21:24;24.00;77.10
20594;DHT22;10455;48.732;10.266;2022-07-10T14:26:28;24.90;73.00
20594;DHT22;10455;48.732;10.266;2022-07-10T14:31:30;25.70;74.20
20594;DHT22;10455;48.732;10.266;2022-07-10T14:36:33;25.80;75.20
20594;DHT22;10455;48.732;10.266;2022-07-10T14:41:36;24.00;77.60
20594;DHT22;10455;48.732;10.266;2022-07-10T14:46:38;26.80;71.10
20594;DHT22;10455;48.732;10.266;2022-07-10T14:51:42;26.90;71.10
20594;DHT22;10455;48.732;10.266;2022-07-10T14:56:44;24.70;76.60
20594;DHT22;10455;48.732;10.266;2022-07-10T15:01:46;24.50;74.40
20594;DHT22;10455;48.732;10.266;2022-07-10T15:06:50;23.00;76.80
20594;DHT22;10455;48.732;10.266;2022-07-10T15:11:52;26.10;72.50
20594;DHT22;10455;48.732;10.266;2022-07-10T15:16:55;26.90;69.00
20594;DHT22;10455;48.732;10.266;2022-07-10T15:21:58;26.50;71.60
20594;DHT22;10455;48.732;10.266;2022-07-10T15:27:01;24.30;73.70
20594;DHT22;10455;48.732;10.266;2022-07-10T15:32:04;25.20;71.90
20594;DHT22;10455;48.732;10.266;2022-07-10T15:37:08;25.40;74.20
20594;DHT22;10455;48.732;10.266;2022-07-10T15:42:11;27.30;66.20
20594;DHT22;10455;48.732;10.266;2022-07-10T15:47:13;26.80;67.80
20594;DHT22;10455;48.732;10.266;2022-07-10T15:52:17;27.40;67.60
20594;DHT22;10455;48.732;10.266;2022-07-10T15:57:20;28.40;62.00
20594;DHT22;10455;48.732;10.266;2022-07-10T16:02:22;28.20;64.60
20594;DHT22;10455;48.732;10.266;2022-07-10T16:07:25;28.50;61.60
20594;DHT22;10455;48.732;10.266;2022-07-10T16:12:28;28.40;63.80
20594;DHT22;10455;48.732;10.266;2022-07-10T16:17:30;26.60;67.20
20594;DHT22;10455;48.732;10.266;2022-07-10T16:22:33;25.60;70.50
20594;DHT22;10455;48.732;10.266;2022-07-10T16:27:36;25.20;67.60
20594;DHT22;10455;48.732;10.266;2022-07-10T16:32:39;24.30;70.30
20594;DHT22;10455;48.732;10.266;2022-07-10T16:37:42;26.80;68.90
20594;DHT22;10455;48.732;10.266;2022-07-10T16:42:45;27.60;66.00
20594;DHT22;10455;48.732;10.266;2022-07-10T16:47:47;24.60;71.50
20594;DHT22;10455;48.732;10.266;2022-07-10T16:52:54;23.20;74.70
20594;DHT22;10455;48.732;10.266;2022-07-10T16:57:57;21.00;78.30
20594;DHT22;10455;48.732;10.266;2022-07-10T17:02:59;21.00;82.90
20594;DHT22;10455;48.732;10.266;2022-07-10T17:08:04;20.50;80.70
20594;DHT22;10455;48.732;10.266;2022-07-10T17:13:10;19.60;84.60
20594;DHT22;10455;48.732;10.266;2022-07-10T17:18:12;19.50;83.80
20594;DHT22;10455;48.732;10.266;2022-07-10T17:23:16;19.50;82.90
20594;DHT22;10455;48.732;10.266;2022-07-10T17:28:18;19.20;83.50
20594;DHT22;10455;48.732;10.266;2022-07-10T17:33:21;19.30;84.90
20594;DHT22;10455;48.732;10.266;2022-07-10T17:38:25;18.50;87.30
20594;DHT22;10455;48.732;10.266;2022-07-10T17:43:29;18.50;87.30
20594;DHT22;10455;48.732;10.266;2022-07-10T17:48:31;18.70;86.40
20594;DHT22;10455;48.732;10.266;2022-07-10T17:53:35;18.20;87.70
20594;DHT22;10455;48.732;10.266;2022-07-10T17:58:37;18.20;86.70
20594;DHT22;10455;48.732;10.266;2022-07-10T18:03:39;18.30;86.80
20594;DHT22;10455;48.732;10.266;2022-07-10T18:08:43;18.20;88.20
20594;DHT22;10455;48.732;10.266;2022-07-10T18:13:49;18.00;88.70
20594;DHT22;10455;48.732;10.266;2022-07-10T18:18:52;18.00;89.30
20594;DHT22;10455;48.732;10.266;2022-07-10T18:23:56;17.80;88.50
20594;DHT22;10455;48.732;10.266;2022-07-10T18:29:01;17.70;90.40
20594;DHT22;10455;48.732;10.266;2022-07-10T18:34:03;17.60;90.70
20594;DHT22;10455;48.732;10.266;2022-07-10T18:39:24;17.70;90.30
20594;DHT22;10455;48.732;10.266;2022-07-10T18:44:27;17.50;90.40
20594;DHT22;10455;48.732;10.266;2022-07-10T18:49:29;17.40;91.00
20594;DHT22;10455;48.732;10.266;2022-07-10T18:54:32;17.10;92.00
20594;DHT22;10455;48.732;10.266;2022-07-10T18:59:35;16.70;92.30
20594;DHT22;10455;48.732;10.266;2022-07-10T19:04:38;16.40;93.20
20594;DHT22;10455;48.732;10.266;2022-07-10T19:09:41;16.20;93.30
20594;DHT22;10455;48.732;10.266;2022-07-10T19:14:43;15.90;93.80
20594;DHT22;10455;48.732;10.266;2022-07-10T19:19:46;15.70;93.90
20594;DHT22;10455;48.732;10.266;2022-07-10T19:24:50;15.30;95.60
20594;DHT22;10455;48.732;10.266;2022-07-10T19:29:52;15.00;96.10
20594;DHT22;10455;48.732;10.266;2022-07-10T19:34:54;14.50;97.70
20594;DHT22;10455;48.732;10.266;2022-07-10T19:39:58;14.10;98.70
20594;DHT22;10455;48.732;10.266;2022-07-10T19:45:01;13.70;99.90
20594;DHT22;10455;48.732;10.266;2022-07-10T19:50:04;13.40;99.90
20594;DHT22;10455;48.732;10.266;2022-07-10T19:55:09;13.10;99.90
20594;DHT22;10455;48.732;10.266;2022-07-10T20:00:12;12.80;99.90
20594;DHT22;10455;48.732;10.266;2022-07-10T20:05:14;12.60;99.90
20594;DHT22;10455;48.732;10.266;2022-07-10T20:10:18;12.30;99.90
20594;DHT22;10455;48.732;10.266;2022-07-10T20:15:20;12.10;99.90
20594;DHT22;10455;48.732;10.266;2022-07-10T20:20:22;11.80;99.90
20594;DHT22;10455;48.732;10.266;2022-07-10T20:25:26;11.70;99.90
20594;DHT22;10455;48.732;10.266;2022-07-10T20:30:29;11.60;99.90
20594;DHT22;10455;48.732;10.266;2022-07-10T20:35:31;11.40;99.90
20594;DHT22;10455;48.732;10.266;2022-07-10T20:40:35;11.30;99.90
20594;DHT22;10455;48.732;10.266;2022-07-10T20:45:37;11.10;99.90
20594;DHT22;10455;48.732;10.266;2022-07-10T20:50:39;11.00;99.90
20594;DHT22;10455;48.732;10.266;2022-07-10T20:55:43;11.00;99.90
20594;DHT22;10455;48.732;10.266;2022-07-10T21:00:45;10.80;99.90
20594;DHT22;10455;48.732;10.266;2022-07-10T21:05:47;10.70;99.90
20594;DHT22;10455;48.732;10.266;2022-07-10T21:10:51;10.50;99.90
20594;DHT22;10455;48.732;10.266;2022-07-10T21:15:54;10.50;99.90
20594;DHT22;10455;48.732;10.266;2022-07-10T21:20:56;10.30;99.90
20594;DHT22;10455;48.732;10.266;2022-07-10T21:26:00;10.10;99.90
20594;DHT22;10455;48.732;10.266;2022-07-10T21:31:02;10.10;99.90
20594;DHT22;10455;48.732;10.266;2022-07-10T21:36:07;10.10;99.90
20594;DHT22;10455;48.732;10.266;2022-07-10T21:41:10;9.70;99.90
20594;DHT22;10455;48.732;10.266;2022-07-10T21:46:13;9.70;99.90
20594;DHT22;10455;48.732;10.266;2022-07-10T21:51:15;9.70;99.90
20594;DHT22;10455;48.732;10.266;2022-07-10T21:56:18;9.90;99.90
20594;DHT22;10455;48.732;10.266;2022-07-10T22:01:21;10.10;99.90
20594;DHT22;10455;48.732;10.266;2022-07-10T22:11:27;10.20;99.90
20594;DHT22;10455;48.732;10.266;2022-07-10T22:16:29;10.30;99.90
20594;DHT22;10455;48.732;10.266;2022-07-10T22:21:31;10.50;99.90
20594;DHT22;10455;48.732;10.266;2022-07-10T22:26:35;10.50;99.90
20594;DHT22;10455;48.732;10.266;2022-07-10T22:31:37;10.70;99.90
20594;DHT22;10455;48.732;10.266;2022-07-10T22:36:39;10.80;99.90
20594;DHT22;10455;48.732;10.266;2022-07-10T22:41:43;11.00;99.90
20594;DHT22;10455;48.732;10.266;2022-07-10T22:46:45;11.10;99.90
20594;DHT22;10455;48.732;10.266;2022-07-10T22:51:47;10.90;99.90
20594;DHT22;10455;48.732;10.266;2022-07-10T23:01:53;10.40;99.90
20594;DHT22;10455;48.732;10.266;2022-07-10T23:06:56;10.00;99.90
20594;DHT22;10455;48.732;10.266;2022-07-10T23:12:01;9.80;99.90
20594;DHT22;10455;48.732;10.266;2022-07-10T23:17:04;9.90;99.90
20594;DHT22;10455;48.732;10.266;2022-07-10T23:22:06;9.90;99.90
20594;DHT22;10455;48.732;10.266;2022-07-10T23:27:13;9.80;99.90
20594;DHT22;10455;48.732;10.266;2022-07-10T23:32:15;9.60;99.90
20594;DHT22;10455;48.732;10.266;2022-07-10T23:37:18;9.60;99.90
20594;DHT22;10455;48.732;10.266;2022-07-10T23:42:25;9.50;99.90
20594;DHT22;10455;48.732;10.266;2022-07-10T23:47:58;9.30;99.90
20594;DHT22;10455;48.732;10.266;2022-07-10T23:53:00;9.50;99.90
20594;DHT22;10455;48.732;10.266;2022-07-10T23:58:04;9.60;99.90
